createdAt,value
2023-04-06T00:00:13.332Z,99.90
2023-04-06T00:02:41.992Z,99.90
2023-04-06T00:05:11.127Z,99.90
2023-04-06T00:07:41.390Z,99.90
2023-04-06T00:10:12.149Z,99.90
2023-04-06T00:12:40.681Z,99.90
2023-04-06T00:15:10.608Z,99.90
2023-04-06T00:17:39.142Z,99.90
2023-04-06T00:20:09.478Z,99.90
2023-04-06T00:22:37.944Z,99.90
2023-04-06T00:25:08.954Z,99.90
2023-04-06T00:27:37.472Z,99.90
2023-04-06T00:30:07.568Z,99.90
2023-04-06T00:32:37.366Z,99.90
2023-04-06T00:35:07.483Z,99.90
2023-04-06T00:37:36.026Z,99.90
2023-04-06T00:40:05.032Z,99.90
2023-04-06T00:42:34.947Z,99.90
2023-04-06T00:45:04.787Z,99.90
2023-04-06T00:47:33.383Z,99.90
2023-04-06T00:50:02.004Z,99.90
2023-04-06T00:52:30.462Z,99.90
2023-04-06T00:54:59.150Z,99.90
2023-04-06T00:57:27.956Z,99.90
2023-04-06T00:59:59.681Z,99.90
2023-04-06T01:02:28.278Z,99.90
2023-04-06T01:04:57.617Z,99.90
2023-04-06T01:07:31.836Z,99.90
2023-04-06T01:10:12.243Z,99.90
2023-04-06T01:12:41.272Z,99.90
2023-04-06T01:15:21.647Z,99.90
2023-04-06T01:17:53.117Z,99.90
2023-04-06T01:20:21.988Z,99.90
2023-04-06T01:22:52.109Z,99.90
2023-04-06T01:25:21.634Z,99.90
2023-04-06T01:28:04.000Z,99.90
2023-04-06T01:31:04.523Z,99.90
2023-04-06T01:33:52.312Z,99.90
2023-04-06T01:36:24.280Z,99.90
2023-04-06T01:39:02.376Z,99.90
2023-04-06T01:41:36.599Z,99.90
2023-04-06T01:44:05.548Z,99.90
2023-04-06T01:46:35.119Z,99.90
2023-04-06T01:49:06.312Z,99.90
2023-04-06T01:51:37.625Z,99.90
2023-04-06T01:54:10.665Z,99.90
2023-04-06T01:56:54.147Z,99.90
2023-04-06T01:59:30.706Z,99.90
2023-04-06T02:02:00.413Z,99.90
2023-04-06T02:04:30.353Z,99.90
2023-04-06T02:07:09.484Z,99.90
2023-04-06T02:09:39.547Z,99.90
2023-04-06T02:12:12.286Z,99.90
2023-04-06T02:14:40.848Z,99.90
2023-04-06T02:17:09.445Z,99.90
2023-04-06T02:19:38.241Z,99.90
2023-04-06T02:22:07.678Z,99.90
2023-04-06T02:24:36.560Z,99.90
2023-04-06T02:27:06.918Z,99.90
2023-04-06T02:29:35.459Z,99.90
2023-04-06T02:32:04.513Z,99.90
2023-04-06T02:34:34.920Z,99.90
2023-04-06T02:37:03.637Z,99.90
2023-04-06T02:39:32.406Z,99.90
2023-04-06T02:42:01.977Z,99.90
2023-04-06T02:44:32.993Z,99.90
2023-04-06T02:47:01.442Z,99.90
2023-04-06T02:49:30.187Z,99.90
2023-04-06T02:52:01.369Z,99.90
2023-04-06T02:54:34.161Z,99.90
2023-04-06T02:57:04.262Z,99.90
2023-04-06T02:59:44.246Z,99.90
2023-04-06T03:02:27.629Z,99.90
2023-04-06T03:05:05.256Z,99.90
2023-04-06T03:07:38.702Z,99.90
2023-04-06T03:10:11.635Z,99.90
2023-04-06T03:12:40.400Z,99.90
2023-04-06T03:15:22.881Z,99.90
2023-04-06T03:17:58.877Z,99.90
2023-04-06T03:20:35.403Z,99.90
2023-04-06T03:23:04.019Z,99.90
2023-04-06T03:25:37.009Z,99.90
2023-04-06T03:28:08.476Z,99.90
2023-04-06T03:30:44.131Z,99.90
2023-04-06T03:33:13.965Z,99.90
2023-04-06T03:35:51.924Z,99.90
2023-04-06T03:38:20.822Z,99.90
2023-04-06T03:40:49.421Z,99.90
2023-04-06T03:43:22.868Z,99.90
2023-04-06T03:45:52.781Z,99.90
2023-04-06T03:48:22.272Z,99.90
2023-04-06T03:50:51.017Z,99.90
2023-04-06T03:53:19.666Z,99.90
2023-04-06T03:55:48.164Z,99.90
2023-04-06T03:58:18.069Z,99.90
2023-04-06T04:00:47.546Z,99.90
2023-04-06T04:03:17.618Z,99.90
2023-04-06T04:05:46.344Z,99.90
2023-04-06T04:08:15.881Z,99.90
2023-04-06T04:10:44.341Z,99.90
2023-04-06T04:13:12.921Z,99.90
2023-04-06T04:15:42.641Z,99.90
2023-04-06T04:18:13.665Z,99.90
2023-04-06T04:20:43.641Z,99.90
2023-04-06T04:23:15.385Z,99.90
2023-04-06T04:25:45.574Z,99.90
2023-04-06T04:28:14.049Z,99.90
2023-04-06T04:30:44.034Z,99.90
2023-04-06T04:33:14.010Z,99.90
2023-04-06T04:35:45.465Z,99.90
2023-04-06T04:38:17.936Z,99.90
2023-04-06T04:40:52.416Z,99.90
2023-04-06T04:43:21.072Z,99.90
2023-04-06T04:45:51.709Z,99.90
2023-04-06T04:48:30.588Z,99.90
2023-04-06T04:51:04.739Z,99.90
2023-04-06T04:53:44.831Z,99.90
2023-04-06T04:56:22.095Z,99.90
2023-04-06T04:58:55.144Z,99.90
2023-04-06T05:01:24.460Z,99.90
2023-04-06T05:03:53.589Z,99.90
2023-04-06T05:06:23.599Z,99.90
2023-04-06T05:08:52.713Z,99.90
2023-04-06T05:11:22.483Z,99.90
2023-04-06T05:13:58.590Z,99.90
2023-04-06T05:16:27.491Z,99.90
2023-04-06T05:18:57.745Z,99.90
2023-04-06T05:21:32.731Z,99.90
2023-04-06T05:24:06.414Z,99.90
2023-04-06T05:26:36.437Z,99.90
2023-04-06T05:29:10.708Z,99.90
2023-04-06T05:31:40.769Z,99.90
2023-04-06T05:34:11.505Z,99.90
2023-04-06T05:36:42.359Z,99.90
2023-04-06T05:39:19.465Z,99.90
2023-04-06T05:41:53.365Z,99.90
2023-04-06T05:44:32.840Z,99.90
2023-04-06T05:47:08.300Z,99.90
2023-04-06T05:49:38.100Z,99.90
2023-04-06T05:52:12.351Z,99.90
2023-04-06T05:54:44.162Z,99.90
2023-04-06T05:57:12.838Z,99.90
2023-04-06T05:59:41.832Z,99.90
2023-04-06T06:02:11.896Z,99.90
2023-04-06T06:04:44.255Z,99.90
2023-04-06T06:07:14.374Z,99.90
2023-04-06T06:09:47.025Z,99.90
2023-04-06T06:12:26.645Z,99.90
2023-04-06T06:14:57.314Z,99.90
2023-04-06T06:17:28.247Z,99.90
2023-04-06T06:19:57.645Z,99.90
2023-04-06T06:22:27.685Z,99.90
2023-04-06T06:24:56.514Z,99.90
2023-04-06T06:27:26.047Z,99.90
2023-04-06T06:29:54.851Z,99.90
2023-04-06T06:32:24.966Z,99.90
2023-04-06T06:34:55.607Z,99.90
2023-04-06T06:37:24.134Z,99.90
2023-04-06T06:39:54.313Z,99.90
2023-04-06T06:42:23.687Z,99.90
2023-04-06T06:45:07.994Z,99.90
2023-04-06T06:47:36.646Z,99.90
2023-04-06T06:50:07.020Z,99.90
2023-04-06T06:52:35.622Z,99.90
2023-04-06T06:55:06.235Z,99.90
2023-04-06T06:57:34.921Z,99.90
2023-04-06T07:00:06.160Z,99.90
2023-04-06T07:02:37.725Z,99.90
2023-04-06T07:05:23.591Z,99.90
2023-04-06T07:07:55.889Z,99.90
2023-04-06T07:10:26.926Z,99.90
2023-04-06T07:12:55.567Z,99.90
2023-04-06T07:15:24.690Z,99.90
2023-04-06T07:17:55.544Z,99.90
2023-04-06T07:20:24.596Z,99.90
2023-04-06T07:22:53.214Z,99.90
2023-04-06T07:25:24.301Z,99.90
2023-04-06T07:27:55.532Z,99.90
2023-04-06T07:30:27.189Z,99.90
2023-04-06T07:32:56.533Z,99.90
2023-04-06T07:35:27.038Z,99.90
2023-04-06T07:37:56.473Z,99.90
2023-04-06T07:40:25.070Z,99.90
2023-04-06T07:42:56.196Z,99.90
2023-04-06T07:45:26.462Z,99.90
2023-04-06T07:47:55.580Z,99.90
2023-04-06T07:50:25.632Z,99.90
2023-04-06T07:52:55.651Z,99.90
2023-04-06T07:55:24.622Z,99.90
2023-04-06T07:57:53.260Z,99.90
2023-04-06T08:00:24.101Z,99.90
2023-04-06T08:02:52.651Z,99.90
2023-04-06T08:05:21.552Z,99.90
2023-04-06T08:07:50.103Z,99.90
2023-04-06T08:10:18.543Z,99.90
2023-04-06T08:12:46.981Z,99.90
2023-04-06T08:15:15.906Z,99.90
2023-04-06T08:17:45.741Z,99.90
2023-04-06T08:20:14.291Z,99.90
2023-04-06T08:22:42.724Z,99.90
2023-04-06T08:25:11.387Z,99.90
2023-04-06T08:27:39.892Z,99.90
2023-04-06T08:30:11.142Z,99.90
2023-04-06T08:32:39.734Z,99.90
2023-04-06T08:35:10.502Z,99.90
2023-04-06T08:37:38.942Z,99.90
2023-04-06T08:40:09.606Z,99.90
2023-04-06T08:42:46.240Z,99.90
2023-04-06T08:45:18.757Z,99.90
2023-04-06T08:47:49.113Z,99.90
2023-04-06T08:50:19.981Z,99.90
2023-04-06T08:52:50.713Z,99.90
2023-04-06T08:55:19.557Z,99.90
2023-04-06T08:57:49.115Z,99.90
2023-04-06T09:00:19.823Z,99.90
2023-04-06T09:02:51.290Z,99.90
2023-04-06T09:05:21.677Z,99.90
2023-04-06T09:07:50.360Z,99.90
2023-04-06T09:10:19.799Z,99.90
2023-04-06T09:12:48.311Z,99.90
2023-04-06T09:15:25.158Z,99.90
2023-04-06T09:17:55.492Z,99.90
2023-04-06T09:20:28.958Z,99.90
2023-04-06T09:22:57.856Z,99.90
2023-04-06T09:25:28.419Z,99.90
2023-04-06T09:28:07.763Z,99.90
2023-04-06T09:30:36.956Z,99.90
2023-04-06T09:33:05.733Z,99.90
2023-04-06T09:35:35.634Z,99.90
2023-04-06T09:38:13.823Z,99.90
2023-04-06T09:41:00.766Z,99.90
2023-04-06T09:43:30.584Z,99.90
2023-04-06T09:46:00.902Z,99.90
2023-04-06T09:48:33.206Z,99.90
2023-04-06T09:51:08.573Z,99.90
2023-04-06T09:53:42.964Z,99.90
2023-04-06T09:56:22.580Z,99.90
2023-04-06T09:58:54.961Z,99.90
2023-04-06T10:01:28.329Z,99.90
2023-04-06T10:04:13.440Z,99.90
2023-04-06T10:06:44.039Z,99.90
2023-04-06T10:09:14.765Z,99.90
2023-04-06T10:11:44.532Z,99.90
2023-04-06T10:14:13.825Z,99.90
2023-04-06T10:16:42.373Z,99.90
2023-04-06T10:19:17.701Z,99.90
2023-04-06T10:21:55.421Z,99.90
2023-04-06T10:24:24.010Z,99.90
2023-04-06T10:27:04.233Z,99.90
2023-04-06T10:29:46.217Z,99.90
2023-04-06T10:32:14.935Z,99.90
2023-04-06T10:34:43.424Z,99.70
2023-04-06T10:37:19.901Z,99.90
2023-04-06T10:39:49.774Z,99.90
2023-04-06T10:42:18.634Z,98.70
2023-04-06T10:44:47.435Z,99.90
2023-04-06T10:47:19.960Z,99.90
2023-04-06T10:49:48.525Z,99.70
2023-04-06T10:52:18.611Z,99.90
2023-04-06T10:54:50.456Z,99.30
2023-04-06T10:57:30.356Z,99.90
2023-04-06T10:59:58.976Z,99.90
2023-04-06T11:02:29.070Z,98.90
2023-04-06T11:04:59.256Z,99.90
2023-04-06T11:07:30.545Z,99.10
2023-04-06T11:10:14.030Z,98.70
2023-04-06T11:12:45.596Z,96.90
2023-04-06T11:15:14.073Z,99.80
2023-04-06T11:17:42.652Z,98.10
2023-04-06T11:20:13.758Z,97.70
2023-04-06T11:22:52.800Z,96.90
2023-04-06T11:25:21.391Z,98.40
2023-04-06T11:27:50.502Z,98.20
2023-04-06T11:30:20.412Z,96.40
2023-04-06T11:32:49.054Z,99.30
2023-04-06T11:35:23.242Z,98.00
2023-04-06T11:37:53.759Z,98.00
2023-04-06T11:40:25.677Z,97.50
2023-04-06T11:42:58.514Z,97.70
2023-04-06T11:45:29.596Z,97.50
2023-04-06T11:48:00.419Z,97.60
2023-04-06T11:50:35.995Z,97.10
2023-04-06T11:53:05.900Z,96.00
2023-04-06T11:55:41.035Z,95.00
2023-04-06T11:58:09.564Z,97.80
2023-04-06T12:00:38.105Z,96.20
2023-04-06T12:03:06.996Z,97.30
2023-04-06T12:05:36.129Z,97.10
2023-04-06T12:08:06.186Z,94.00
2023-04-06T12:10:34.802Z,96.60
2023-04-06T12:13:03.466Z,94.60
2023-04-06T12:15:31.973Z,95.60
2023-04-06T12:18:00.726Z,94.40
2023-04-06T12:20:29.324Z,94.80
2023-04-06T12:22:57.881Z,93.90
2023-04-06T12:25:27.725Z,93.30
2023-04-06T12:27:56.909Z,92.80
2023-04-06T12:30:25.366Z,94.80
2023-04-06T12:32:53.950Z,96.70
2023-04-06T12:35:22.766Z,98.40
2023-04-06T12:37:51.331Z,93.80
2023-04-06T12:40:20.049Z,92.00
2023-04-06T12:42:49.876Z,93.40
2023-04-06T12:45:20.858Z,92.40
2023-04-06T12:47:49.330Z,93.10
2023-04-06T12:50:18.086Z,78.10
2023-04-06T12:52:46.503Z,91.60
2023-04-06T12:55:16.204Z,92.30
2023-04-06T12:57:45.350Z,92.90
2023-04-06T13:00:17.131Z,93.90
2023-04-06T13:02:48.186Z,92.60
2023-04-06T13:05:19.719Z,94.40
2023-04-06T13:07:48.651Z,91.30
2023-04-06T13:10:17.392Z,94.10
2023-04-06T13:12:45.826Z,91.60
2023-04-06T13:15:16.101Z,93.60
2023-04-06T13:17:44.587Z,93.70
2023-04-06T13:20:14.216Z,93.00
2023-04-06T13:22:42.652Z,94.70
2023-04-06T13:25:11.287Z,91.90
2023-04-06T13:27:40.240Z,91.30
2023-04-06T13:30:11.128Z,91.10
2023-04-06T13:32:41.260Z,88.80
2023-04-06T13:35:11.007Z,84.90
2023-04-06T13:37:40.966Z,90.50
2023-04-06T13:40:11.131Z,86.40
2023-04-06T13:42:41.798Z,85.60
2023-04-06T13:45:11.882Z,88.80
2023-04-06T13:47:42.177Z,89.10
2023-04-06T13:50:11.328Z,85.60
2023-04-06T13:52:39.825Z,90.40
2023-04-06T13:55:09.169Z,85.00
2023-04-06T13:57:38.697Z,90.40
2023-04-06T14:00:10.107Z,93.30
2023-04-06T14:02:38.549Z,95.20
2023-04-06T14:05:09.841Z,94.10
2023-04-06T14:07:38.137Z,90.00
2023-04-06T14:10:14.439Z,91.60
2023-04-06T14:12:43.431Z,57.40
2023-04-06T14:15:13.518Z,68.30
2023-04-06T14:17:42.053Z,86.80
2023-04-06T14:20:15.707Z,91.00
2023-04-06T14:22:44.371Z,92.60
2023-04-06T14:25:13.557Z,91.50
2023-04-06T14:27:41.904Z,86.90
2023-04-06T14:30:11.800Z,75.20
2023-04-06T14:32:40.842Z,79.50
2023-04-06T14:35:11.670Z,90.20
2023-04-06T14:37:40.004Z,86.50
2023-04-06T14:40:10.218Z,90.70
2023-04-06T14:42:38.678Z,90.70
2023-04-06T14:45:08.314Z,81.60
2023-04-06T14:47:36.715Z,90.40
2023-04-06T14:50:06.156Z,84.40
2023-04-06T14:52:35.957Z,84.80
2023-04-06T14:55:04.531Z,81.80
2023-04-06T14:57:33.671Z,81.10
2023-04-06T15:00:01.880Z,90.10
2023-04-06T15:02:30.442Z,93.90
2023-04-06T15:04:59.406Z,94.00
2023-04-06T15:07:27.822Z,94.90
2023-04-06T15:09:57.520Z,91.10
2023-04-06T15:12:25.902Z,88.30
2023-04-06T15:14:54.383Z,89.50
2023-04-06T15:17:22.707Z,92.00
2023-04-06T15:19:51.169Z,92.50
2023-04-06T15:22:19.439Z,93.40
2023-04-06T15:24:47.777Z,93.60
2023-04-06T15:27:17.396Z,91.30
2023-04-06T15:29:45.899Z,85.80
2023-04-06T15:32:14.348Z,91.30
2023-04-06T15:34:42.685Z,91.90
2023-04-06T15:37:11.185Z,91.50
2023-04-06T15:39:39.460Z,89.90
2023-04-06T15:42:07.720Z,90.90
2023-04-06T15:44:37.416Z,90.40
2023-04-06T15:47:05.840Z,88.50
2023-04-06T15:49:34.862Z,91.50
2023-04-06T15:52:03.264Z,90.20
2023-04-06T15:54:31.534Z,90.90
2023-04-06T15:56:59.813Z,94.10
2023-04-06T15:59:28.082Z,91.80
2023-04-06T16:01:57.756Z,80.70
2023-04-06T16:04:26.220Z,85.40
2023-04-06T16:06:54.591Z,80.80
2023-04-06T16:09:22.876Z,80.50
2023-04-06T16:11:51.115Z,84.60
2023-04-06T16:14:19.447Z,87.10
2023-04-06T16:16:47.854Z,87.90
2023-04-06T16:19:17.751Z,92.30
2023-04-06T16:21:46.429Z,86.90
2023-04-06T16:24:14.727Z,90.20
2023-04-06T16:26:44.359Z,87.30
2023-04-06T16:29:12.892Z,79.40
2023-04-06T16:31:41.637Z,80.40
2023-04-06T16:34:10.035Z,87.90
2023-04-06T16:36:41.017Z,88.10
2023-04-06T16:39:11.175Z,91.30
2023-04-06T16:41:40.789Z,90.60
2023-04-06T16:44:09.149Z,92.50
2023-04-06T16:46:39.081Z,94.60
2023-04-06T16:49:07.857Z,94.80
2023-04-06T16:51:37.010Z,93.70
2023-04-06T16:54:06.817Z,95.10
2023-04-06T16:56:35.215Z,95.40
2023-04-06T16:59:03.504Z,97.00
2023-04-06T17:01:31.897Z,98.50
2023-04-06T17:04:00.662Z,99.10
2023-04-06T17:06:29.205Z,99.60
2023-04-06T17:08:59.642Z,97.70
2023-04-06T17:11:39.861Z,97.90
2023-04-06T17:14:14.696Z,98.00
2023-04-06T17:16:43.237Z,98.00
2023-04-06T17:19:11.542Z,98.10
2023-04-06T17:21:42.044Z,98.90
2023-04-06T17:24:10.552Z,99.80
2023-04-06T17:26:40.411Z,99.90
2023-04-06T17:29:08.684Z,99.00
2023-04-06T17:31:37.095Z,99.90
2023-04-06T17:34:05.466Z,99.90
2023-04-06T17:36:33.862Z,99.90
2023-04-06T17:39:02.265Z,99.90
2023-04-06T17:41:32.678Z,99.90
2023-04-06T17:44:02.355Z,99.90
2023-04-06T17:46:30.806Z,99.90
2023-04-06T17:48:59.247Z,99.90
2023-04-06T17:51:27.683Z,99.90
2023-04-06T17:53:55.991Z,99.90
2023-04-06T17:56:24.400Z,99.90
2023-04-06T17:58:56.998Z,99.90
2023-04-06T18:01:26.742Z,99.90
2023-04-06T18:03:55.051Z,99.90
2023-04-06T18:06:25.667Z,99.90
2023-04-06T18:08:55.691Z,99.90
2023-04-06T18:11:25.684Z,99.90
2023-04-06T18:13:54.159Z,99.90
2023-04-06T18:16:22.575Z,99.90
2023-04-06T18:18:52.302Z,99.90
2023-04-06T18:21:20.681Z,99.90
2023-04-06T18:23:49.319Z,99.90
2023-04-06T18:26:19.602Z,99.90
2023-04-06T18:28:49.087Z,99.90
2023-04-06T18:31:17.400Z,99.90
2023-04-06T18:33:46.812Z,99.90
2023-04-06T18:36:16.618Z,99.90
2023-04-06T18:38:47.813Z,99.90
2023-04-06T18:41:16.295Z,99.90
2023-04-06T18:43:44.586Z,99.90
2023-04-06T18:46:14.344Z,99.90
2023-04-06T18:48:42.976Z,99.90
2023-04-06T18:51:11.635Z,99.90
2023-04-06T18:53:41.577Z,99.90
2023-04-06T18:56:18.447Z,99.90
2023-04-06T18:58:48.199Z,99.90
2023-04-06T19:01:24.738Z,99.90
2023-04-06T19:03:54.228Z,99.90
2023-04-06T19:06:22.966Z,99.90
2023-04-06T19:08:52.648Z,99.90
2023-04-06T19:11:23.025Z,99.90
2023-04-06T19:13:51.398Z,99.90
2023-04-06T19:16:19.826Z,99.90
2023-04-06T19:18:48.195Z,99.90
2023-04-06T19:21:17.849Z,99.90
2023-04-06T19:23:46.378Z,99.90
2023-04-06T19:26:17.979Z,99.90
2023-04-06T19:28:47.493Z,99.90
2023-04-06T19:31:18.464Z,99.90
2023-04-06T19:33:47.992Z,99.90
2023-04-06T19:36:17.192Z,99.90
2023-04-06T19:38:45.824Z,99.90
2023-04-06T19:41:15.548Z,99.90
2023-04-06T19:43:43.982Z,99.90
2023-04-06T19:46:13.835Z,99.90
2023-04-06T19:48:42.342Z,99.90
2023-04-06T19:51:10.674Z,99.90
2023-04-06T19:53:38.937Z,99.90
2023-04-06T19:56:07.299Z,99.90
2023-04-06T19:58:37.667Z,99.90
2023-04-06T20:01:06.456Z,99.90
2023-04-06T20:03:36.420Z,99.90
2023-04-06T20:06:05.110Z,99.90
2023-04-06T20:08:33.466Z,99.90
2023-04-06T20:11:03.217Z,99.90
2023-04-06T20:13:31.909Z,99.90
2023-04-06T20:16:01.768Z,99.90
2023-04-06T20:18:31.794Z,99.90
2023-04-06T20:21:00.303Z,99.90
2023-04-06T20:23:28.598Z,99.90
2023-04-06T20:25:58.273Z,99.90
2023-04-06T20:28:26.569Z,99.90
2023-04-06T20:30:54.990Z,99.90
2023-04-06T20:33:24.682Z,99.90
2023-04-06T20:35:58.709Z,99.90
2023-04-06T20:38:33.111Z,99.90
2023-04-06T20:41:02.469Z,99.90
2023-04-06T20:43:31.868Z,99.90
2023-04-06T20:46:02.131Z,99.90
2023-04-06T20:48:35.962Z,99.90
2023-04-06T20:51:06.465Z,99.90
2023-04-06T20:53:38.088Z,99.90
2023-04-06T20:56:07.179Z,99.90
2023-04-06T20:58:35.765Z,99.90
2023-04-06T21:01:04.172Z,99.90
2023-04-06T21:03:33.988Z,99.90
2023-04-06T21:06:02.450Z,99.90
2023-04-06T21:08:30.795Z,99.90
2023-04-06T21:10:59.071Z,99.90
2023-04-06T21:13:27.456Z,99.90
2023-04-06T21:15:57.057Z,99.90
2023-04-06T21:18:25.796Z,99.90
2023-04-06T21:20:55.534Z,99.90
2023-04-06T21:23:23.957Z,99.90
2023-04-06T21:25:55.312Z,99.90
2023-04-06T21:28:24.072Z,99.90
2023-04-06T21:30:52.757Z,99.90
2023-04-06T21:33:21.164Z,99.90
2023-04-06T21:35:50.106Z,99.90
2023-04-06T21:38:19.664Z,99.90
2023-04-06T21:40:56.425Z,99.90
2023-04-06T21:43:24.786Z,99.90
2023-04-06T21:45:53.400Z,99.90
2023-04-06T21:48:21.719Z,99.90
2023-04-06T21:50:50.044Z,99.90
2023-04-06T21:53:19.664Z,99.90
2023-04-06T21:55:48.835Z,99.90
2023-04-06T21:58:17.614Z,99.90
2023-04-06T22:00:46.300Z,99.90
2023-04-06T22:03:14.837Z,99.90
2023-04-06T22:05:43.182Z,99.90
2023-04-06T22:08:17.937Z,99.90
2023-04-06T22:10:55.539Z,99.90
2023-04-06T22:13:23.895Z,99.90
2023-04-06T22:15:52.178Z,99.90
2023-04-06T22:18:21.059Z,99.90
2023-04-06T22:20:49.339Z,99.90
2023-04-06T22:23:17.840Z,99.90
2023-04-06T22:25:46.134Z,99.90
2023-04-06T22:28:15.933Z,99.90
2023-04-06T22:30:44.210Z,99.90
2023-04-06T22:33:12.565Z,99.90
2023-04-06T22:35:41.844Z,99.90
2023-04-06T22:38:10.206Z,99.90
2023-04-06T22:40:38.489Z,99.90
2023-04-06T22:43:06.859Z,99.90
2023-04-06T22:45:36.526Z,99.90
2023-04-06T22:48:05.109Z,99.90
2023-04-06T22:50:33.387Z,99.90
2023-04-06T22:53:02.258Z,99.90
2023-04-06T22:55:31.077Z,99.90
2023-04-06T22:57:59.424Z,99.90
2023-04-06T23:00:27.663Z,99.90
2023-04-06T23:02:57.442Z,99.90
2023-04-06T23:05:26.430Z,99.90
2023-04-06T23:07:54.713Z,99.90
2023-04-06T23:10:23.022Z,99.90
2023-04-06T23:12:51.418Z,99.90
2023-04-06T23:15:19.952Z,99.90
2023-04-06T23:17:49.020Z,99.90
2023-04-06T23:20:18.720Z,99.90
2023-04-06T23:22:47.029Z,99.90
2023-04-06T23:25:15.594Z,99.90
2023-04-06T23:27:44.168Z,99.90
2023-04-06T23:30:13.121Z,99.90
2023-04-06T23:32:41.579Z,99.90
2023-04-06T23:35:10.742Z,99.90
2023-04-06T23:37:40.450Z,99.90
2023-04-06T23:40:10.415Z,99.90
2023-04-06T23:42:38.755Z,99.90
2023-04-06T23:45:08.987Z,99.90
2023-04-06T23:47:37.327Z,99.90
2023-04-06T23:50:06.891Z,99.90
2023-04-06T23:52:35.375Z,99.90
2023-04-06T23:55:06.271Z,99.90
2023-04-06T23:57:34.620Z,99.90
